Weather at Clinique Du Medoc Heliport

Public forecast

Using degrees Celsius for public forecast. Weather courtesy of forecast.io.

Closest aviation weather report (METAR) to Clinique Du Medoc Heliport

Closest report is Bordeaux-Mérignac Airport, 30.0 nm (55.6 km) SSE. Retrieved 2021/08/04 07:00 UTC (11 minutes ago):

LFBD 040700Z AUTO 23006KT 9999 FEW007/// SCT039/// BKN072/// ///TCU 19/18 Q1012 TEMPO 26015G25KT 3000 SHRA BKN013TCU

Closest aviation forecast (TAF) to Clinique Du Medoc Heliport

Closest forecast is Bordeaux-Mérignac Airport, 30.0 nm (55.6 km) SSE. Retrieved 2021/08/04 06:42 UTC (29 minutes ago):

TAF TAF LFBD 040500Z 0406/0512 19007KT 9999 SCT005 BKN015 TX22/0512Z TN15/0503Z TEMPO 0406/0408 3000 SHRA BKN004 BKN015TCU BECMG 0408/0410 26010KT BKN030 PROB40 TEMPO 0408/0417 26015G25KT 3000 SHRA BKN013TCU